Cathay, North Dakota
Current Conditions -  °F | °C
As of 5:35 PM on Saturday 25 Oct 2014 (Local Time) from K46D Reporting Station
Clear Clear  
Wind Chill: 57°   Ceiling: Unl
Heat Index: 57°   Visibility: 10mi
Dew Point: 25°   Wind: 5mph
Humidity: 29%   Direction: 290°WNW
Pressure: 30.07"   Gusts: NA
Location:  47.55°N, 99.41°W
Report Text: K46D 252235Z AUTO 29004KT 10SM CLR 14/M04 A3007 RMK AO2
Loading
Personal Weather Stations






























Interactive Weather Map New forecast layout! Learn more

10-Day Weather Forecast

Advertisements
Track Severe Weather on mobile